Time;durP1;ratioP1;P1;durP2;ratioP2;P2;SDS_P1;SDS_P2;PMS_P1;PMS_P2;Temp;Humidity;BMP_temperature;BMP_pressure;BME280_temperature;BME280_humidity;BME280_pressure;Samples;Min_cycle;Max_cycle;Signal;HPM_P1;HPM_P2
2022/08/25 00:02:14;;;;;;;1.10;0.50;;;;;;;-145.06;100.00;60892.56;4831847;28;20492;-88
2022/08/25 00:04:53;;;;;;;0.93;0.70;;;;;;;-145.06;100.00;60892.56;4823239;28;20022;-91
2022/08/25 00:07:32;;;;;;;1.33;0.70;;;;;;;-145.06;100.00;60892.56;4827617;28;20030;-89
2022/08/25 00:10:11;;;;;;;1.63;0.80;;;;;;;-145.06;100.00;60892.56;4828160;28;20069;-88
2022/08/25 00:12:50;;;;;;;1.25;0.70;;;;;;;-145.06;100.00;60892.56;4831445;28;20033;-88
2022/08/25 00:15:33;;;;;;;1.73;0.60;;;;;;;-145.06;100.00;60892.56;4827877;28;20030;-88
2022/08/25 00:18:12;;;;;;;1.17;0.65;;;;;;;-145.06;100.00;60892.56;4827861;28;22027;-88
2022/08/25 00:20:51;;;;;;;1.60;0.80;;;;;;;-145.06;100.00;60892.56;4831288;28;20108;-89
2022/08/25 00:23:30;;;;;;;1.25;0.60;;;;;;;-145.06;100.00;60892.56;4832023;28;20033;-88
2022/08/25 00:26:09;;;;;;;0.90;0.60;;;;;;;-145.06;100.00;60892.56;4826182;28;20504;-88
2022/08/25 00:28:48;;;;;;;1.08;0.70;;;;;;;-145.06;100.00;60892.56;4833133;28;20030;-88
2022/08/25 00:31:29;;;;;;;0.73;0.60;;;;;;;-145.06;100.00;60892.56;4830799;28;20707;-88
2022/08/25 00:34:12;;;;;;;2.38;0.52;;;;;;;-145.06;100.00;60892.56;4828813;28;20025;-88
2022/08/25 00:36:52;;;;;;;0.63;0.50;;;;;;;-145.06;100.00;60892.56;4835930;28;20412;-88
2022/08/25 00:39:32;;;;;;;0.80;0.65;;;;;;;-145.06;100.00;60892.56;4833578;28;20037;-89
2022/08/25 00:42:11;;;;;;;0.75;0.57;;;;;;;-145.06;100.00;60892.56;4834201;28;20030;-89
2022/08/25 00:44:51;;;;;;;0.77;0.60;;;;;;;-145.06;100.00;60892.56;4855808;28;20038;-88
2022/08/25 00:47:29;;;;;;;0.43;0.40;;;;;;;-145.06;100.00;60892.56;4832592;28;20033;-88
2022/08/25 00:50:10;;;;;;;0.80;0.50;;;;;;;-145.06;100.00;60892.56;4829890;28;20559;-88
2022/08/25 00:52:52;;;;;;;0.77;0.50;;;;;;;-145.06;100.00;60892.56;4835194;28;20436;-87
2022/08/25 00:55:38;;;;;;;0.77;0.55;;;;;;;-145.06;100.00;60892.56;4832695;28;20112;-88
2022/08/25 00:58:24;;;;;;;0.65;0.50;;;;;;;-145.06;100.00;60892.56;4834373;28;20038;-89
2022/08/25 01:01:03;;;;;;;0.85;0.57;;;;;;;-145.06;100.00;60892.56;4832703;28;20021;-88
2022/08/25 01:03:42;;;;;;;0.80;0.50;;;;;;;-145.06;100.00;60892.56;4861723;28;20042;-88
2022/08/25 01:06:22;;;;;;;0.73;0.50;;;;;;;-145.06;100.00;60892.56;4831914;28;20030;-88
2022/08/25 01:09:03;;;;;;;1.38;0.60;;;;;;;-145.06;100.00;60892.56;4834197;28;20037;-88
2022/08/25 01:11:43;;;;;;;0.77;0.43;;;;;;;-145.06;100.00;60892.56;4829152;28;20030;-88
2022/08/25 01:14:23;;;;;;;0.95;0.50;;;;;;;-145.06;100.00;60892.56;4835185;28;20030;-88
2022/08/25 01:17:03;;;;;;;0.43;0.35;;;;;;;-145.06;100.00;60892.56;4832870;28;20037;-88
2022/08/25 01:19:42;;;;;;;1.42;0.70;;;;;;;-145.06;100.00;60892.56;4835362;28;20038;-90
2022/08/25 01:22:21;;;;;;;1.02;0.77;;;;;;;-145.06;100.00;60892.56;4833917;28;20045;-88
2022/08/25 01:25:03;;;;;;;1.98;0.80;;;;;;;-145.06;100.00;60892.56;4832981;28;20050;-88
2022/08/25 01:27:43;;;;;;;0.70;0.60;;;;;;;-145.06;100.00;60892.56;4834229;28;20030;-89
2022/08/25 01:30:23;;;;;;;0.57;0.38;;;;;;;-145.06;100.00;60892.56;4832767;28;20545;-88
2022/08/25 01:33:04;;;;;;;0.60;0.50;;;;;;;-145.06;100.00;60892.56;4831784;28;20034;-87
2022/08/25 01:35:44;;;;;;;0.73;0.50;;;;;;;-145.06;100.00;60892.56;4832488;28;20065;-88
2022/08/25 01:38:23;;;;;;;0.88;0.40;;;;;;;-145.06;100.00;60892.56;4832262;28;20361;-88
2022/08/25 01:41:02;;;;;;;0.93;0.52;;;;;;;-145.06;100.00;60892.56;4834470;28;20038;-89
2022/08/25 01:43:41;;;;;;;0.73;0.40;;;;;;;-145.06;100.00;60892.56;4834598;28;20034;-88
2022/08/25 01:46:20;;;;;;;0.73;0.63;;;;;;;-145.06;100.00;60892.56;4832362;28;20389;-89
2022/08/25 01:49:04;;;;;;;0.50;0.40;;;;;;;-145.06;100.00;60892.56;4832077;28;20281;-88
2022/08/25 01:51:49;;;;;;;0.50;0.40;;;;;;;-145.06;100.00;60892.56;4833875;28;20042;-89
2022/08/25 01:54:28;;;;;;;0.90;0.40;;;;;;;-145.06;100.00;60892.56;4831960;28;20074;-89
2022/08/25 01:57:08;;;;;;;0.80;0.40;;;;;;;-145.06;100.00;60892.56;4832532;28;20038;-87
2022/08/25 01:59:47;;;;;;;0.43;0.40;;;;;;;-145.06;100.00;60892.56;4832958;28;20038;-88
2022/08/25 02:02:26;;;;;;;1.03;0.60;;;;;;;-145.06;100.00;60892.56;4830074;28;20038;-88
2022/08/25 02:05:05;;;;;;;0.82;0.60;;;;;;;-145.06;100.00;60892.56;4835104;28;20042;-88
2022/08/25 02:07:44;;;;;;;;;;;;;;;-145.06;100.00;60892.56;4830448;28;20034;-88
2022/08/25 02:10:23;;;;;;;0.85;0.50;;;;;;;-145.06;100.00;60892.56;4830732;28;20371;-88
2022/08/25 02:13:04;;;;;;;2.38;0.47;;;;;;;-145.06;100.00;60892.56;4838007;28;20068;-89
2022/08/25 02:15:53;;;;;;;0.93;0.50;;;;;;;-145.06;100.00;60892.56;4827334;28;20046;-89
2022/08/25 02:18:32;;;;;;;0.63;0.57;;;;;;;-145.06;100.00;60892.56;4834103;28;20113;-89
2022/08/25 02:21:11;;;;;;;0.70;0.57;;;;;;;-145.06;100.00;60892.56;4833151;28;20492;-87
2022/08/25 02:23:50;;;;;;;0.68;0.63;;;;;;;-145.06;100.00;60892.56;4830306;28;20038;-88
2022/08/25 02:26:30;;;;;;;1.20;0.50;;;;;;;-145.06;100.00;60892.56;4827562;28;20042;-88
2022/08/25 02:29:09;;;;;;;0.70;0.43;;;;;;;-145.06;100.00;60892.56;4831411;28;20037;-87
2022/08/25 02:31:48;;;;;;;0.35;0.28;;;;;;;-145.06;100.00;60892.56;4829050;28;20046;-88
2022/08/25 02:34:28;;;;;;;0.68;0.50;;;;;;;-145.06;100.00;60892.56;4837700;28;20495;-89
2022/08/25 02:37:07;;;;;;;0.70;0.60;;;;;;;-145.06;100.00;60892.56;4833858;28;20381;-87
2022/08/25 02:39:46;;;;;;;0.98;0.60;;;;;;;-145.06;100.00;60892.56;4831693;28;20030;-88
2022/08/25 02:42:26;;;;;;;0.53;0.40;;;;;;;-145.06;100.00;60892.56;4833266;28;20029;-88
2022/08/25 02:45:06;;;;;;;;;;;;;;;-145.06;100.00;60892.56;4833164;28;20272;-88
2022/08/25 02:47:46;;;;;;;0.57;0.47;;;;;;;-145.06;100.00;60892.56;4829938;28;19917;-88
2022/08/25 02:50:25;;;;;;;0.73;0.60;;;;;;;-145.06;100.00;60892.56;4829270;28;20506;-88
2022/08/25 02:53:04;;;;;;;0.65;0.40;;;;;;;-145.06;100.00;60892.56;4832038;28;20119;-89
2022/08/25 02:55:43;;;;;;;0.93;0.70;;;;;;;-145.06;100.00;60892.56;4858159;28;20392;-88
2022/08/25 02:58:23;;;;;;;1.08;0.50;;;;;;;-145.06;100.00;60892.56;4832166;28;20042;-88
2022/08/25 03:01:02;;;;;;;1.20;0.50;;;;;;;-145.06;100.00;60892.56;4830158;28;20065;-86
2022/08/25 03:03:43;;;;;;;0.68;0.50;;;;;;;-145.06;100.00;60892.56;4825326;28;20030;-87
2022/08/25 03:06:23;;;;;;;0.60;0.50;;;;;;;-145.06;100.00;60892.56;4832706;28;20480;-88
2022/08/25 03:09:03;;;;;;;0.60;0.50;;;;;;;-145.06;100.00;60892.56;4829134;28;20116;-88
2022/08/25 03:11:42;;;;;;;1.85;0.45;;;;;;;-145.06;100.00;60892.56;4828219;28;20109;-88
2022/08/25 03:14:21;;;;;;;0.88;0.50;;;;;;;-145.06;100.00;60892.56;4841094;28;20042;-87
2022/08/25 03:17:00;;;;;;;0.85;0.70;;;;;;;-145.06;100.00;60892.56;4832542;28;20037;-88
2022/08/25 03:19:39;;;;;;;0.90;0.73;;;;;;;-145.06;100.00;60892.56;4833148;28;20038;-87
2022/08/25 03:22:18;;;;;;;0.88;0.65;;;;;;;-145.06;100.00;60892.56;4828599;28;20389;-88
2022/08/25 03:26:52;;;;;;;1.10;0.75;;;;;;;-145.06;100.00;60892.56;4831472;28;20034;-88
2022/08/25 03:27:57;;;;;;;0.90;0.55;;;;;;;-145.06;100.00;60892.56;4832400;28;20034;-89
2022/08/25 03:30:36;;;;;;;1.05;0.60;;;;;;;-145.06;100.00;60892.56;4832116;28;20042;-88
2022/08/25 03:33:15;;;;;;;0.70;0.63;;;;;;;-145.06;100.00;60892.56;4831333;28;20030;-88
2022/08/25 03:35:55;;;;;;;0.65;0.50;;;;;;;-145.06;100.00;60892.56;4835159;28;21142;-87
2022/08/25 03:38:37;;;;;;;0.93;0.60;;;;;;;-145.06;100.00;60892.56;4828067;28;20041;-87
2022/08/25 03:41:28;;;;;;;1.02;0.63;;;;;;;-145.06;100.00;60892.56;4828113;28;20108;-86
2022/08/25 03:44:08;;;;;;;0.60;0.50;;;;;;;-145.06;100.00;60892.56;4831529;28;20025;-87
2022/08/25 03:46:50;;;;;;;1.00;0.52;;;;;;;-145.06;100.00;60892.56;4829086;28;20026;-88
2022/08/25 03:49:30;;;;;;;1.55;0.65;;;;;;;-145.06;100.00;60892.56;4824929;28;20030;-88
2022/08/25 03:52:09;;;;;;;0.50;0.50;;;;;;;-145.06;100.00;60892.56;4827442;28;20030;-88
2022/08/25 03:54:48;;;;;;;0.75;0.52;;;;;;;-145.06;100.00;60892.56;4832216;28;20033;-88
2022/08/25 03:57:27;;;;;;;0.73;0.60;;;;;;;-145.06;100.00;60892.56;4832496;28;20117;-88
2022/08/25 04:00:08;;;;;;;0.80;0.43;;;;;;;-145.06;100.00;60892.56;4832216;28;20124;-87
2022/08/25 04:02:47;;;;;;;0.60;0.50;;;;;;;-145.06;100.00;60892.56;4858010;28;20033;-87
2022/08/25 04:05:26;;;;;;;0.88;0.50;;;;;;;-145.06;100.00;60892.56;4832005;28;20034;-88
2022/08/25 04:08:06;;;;;;;0.90;0.63;;;;;;;-145.06;100.00;60892.56;4835701;28;20037;-87
2022/08/25 04:10:45;;;;;;;0.75;0.60;;;;;;;-145.06;100.00;60892.56;4830464;28;20065;-88
2022/08/25 04:13:24;;;;;;;1.20;0.80;;;;;;;-145.06;100.00;60892.56;4833730;28;20867;-87
2022/08/25 04:16:11;;;;;;;0.82;0.63;;;;;;;-145.06;100.00;60892.56;4832767;28;20029;-88
2022/08/25 04:18:52;;;;;;;1.55;0.68;;;;;;;-145.06;100.00;60892.56;4833028;28;20124;-86
2022/08/25 04:21:32;;;;;;;1.20;0.60;;;;;;;-145.06;100.00;60892.56;4855064;28;20034;-88
2022/08/25 04:24:12;;;;;;;0.82;0.70;;;;;;;-145.06;100.00;60892.56;4834569;28;20057;-88
2022/08/25 04:26:51;;;;;;;0.82;0.60;;;;;;;-145.06;100.00;60892.56;4832418;28;20042;-89
2022/08/25 04:29:31;;;;;;;0.57;0.57;;;;;;;-145.06;100.00;60892.56;4827264;28;20033;-87
2022/08/25 04:32:10;;;;;;;0.70;0.50;;;;;;;-145.06;100.00;60892.56;4833332;28;20038;-88
2022/08/25 04:34:49;;;;;;;0.85;0.68;;;;;;;-145.06;100.00;60892.56;4833221;28;20377;-88
2022/08/25 04:37:28;;;;;;;0.88;0.52;;;;;;;-145.06;100.00;60892.56;4837406;28;20156;-88
2022/08/25 04:40:08;;;;;;;0.63;0.60;;;;;;;-145.06;100.00;60892.56;4837316;28;20101;-87
2022/08/25 04:42:47;;;;;;;0.82;0.70;;;;;;;-145.06;100.00;60892.56;4834518;28;20045;-88
2022/08/25 04:45:26;;;;;;;0.88;0.77;;;;;;;-145.06;100.00;60892.56;4836105;28;20017;-87
2022/08/25 04:48:06;;;;;;;2.00;0.70;;;;;;;-145.06;100.00;60892.56;4835299;28;20034;-88
2022/08/25 04:50:44;;;;;;;0.90;0.60;;;;;;;-145.06;100.00;60892.56;4838175;28;20500;-88
2022/08/25 04:53:23;;;;;;;0.97;0.70;;;;;;;-145.06;100.00;60892.56;4834834;28;20034;-86
2022/08/25 04:56:11;;;;;;;0.65;0.60;;;;;;;-145.06;100.00;60892.56;4834622;28;20116;-88
2022/08/25 04:58:52;;;;;;;0.77;0.63;;;;;;;-145.06;100.00;60892.56;4828231;28;20038;-88
2022/08/25 05:01:32;;;;;;;0.82;0.60;;;;;;;-145.06;100.00;60892.56;4829952;28;20699;-86
2022/08/25 05:04:13;;;;;;;;;;;;;;;-145.06;100.00;60892.56;4830318;28;20034;-87
2022/08/25 05:06:52;;;;;;;0.90;0.63;;;;;;;-145.06;100.00;60892.56;4835044;28;19941;-87
2022/08/25 05:09:31;;;;;;;1.67;0.80;;;;;;;-145.06;100.00;60892.56;4827493;28;20116;-87
2022/08/25 05:12:10;;;;;;;0.50;0.47;;;;;;;-145.06;100.00;60892.56;4838834;28;20714;-87
2022/08/25 05:14:52;;;;;;;1.00;0.70;;;;;;;-145.06;100.00;60892.56;4832139;28;20030;-89
2022/08/25 05:17:31;;;;;;;0.98;0.70;;;;;;;-145.06;100.00;60892.56;4828102;28;20570;-88
2022/08/25 05:20:11;;;;;;;1.83;0.70;;;;;;;-145.06;100.00;60892.56;4832056;28;20188;-87
2022/08/25 05:22:51;;;;;;;0.82;0.52;;;;;;;-145.06;100.00;60892.56;4830160;28;20121;-87
2022/08/25 05:25:31;;;;;;;0.55;0.55;;;;;;;-145.06;100.00;60892.56;4832138;28;20042;-87
2022/08/25 05:28:10;;;;;;;0.70;0.50;;;;;;;-145.06;100.00;60892.56;4831421;28;20041;-89
2022/08/25 05:30:49;;;;;;;0.90;0.68;;;;;;;-145.06;100.00;60892.56;4829157;28;20057;-88
2022/08/25 05:33:29;;;;;;;1.15;0.60;;;;;;;-145.06;100.00;60892.56;4833033;28;20038;-89
2022/08/25 05:36:11;;;;;;;1.27;0.80;;;;;;;-145.06;100.00;60892.56;4831526;28;20373;-88
2022/08/25 05:38:50;;;;;;;2.17;0.75;;;;;;;-145.06;100.00;60892.56;4827129;28;20113;-88
2022/08/25 05:41:30;;;;;;;1.15;0.82;;;;;;;-145.06;100.00;60892.56;4832163;28;20117;-87
2022/08/25 05:44:09;;;;;;;1.02;0.70;;;;;;;-145.06;100.00;60892.56;4845870;28;20033;-88
2022/08/25 05:46:49;;;;;;;2.60;0.83;;;;;;;-145.06;100.00;60892.56;4839481;28;20030;-87
2022/08/25 05:49:28;;;;;;;1.05;0.85;;;;;;;-145.06;100.00;60892.56;4840965;28;20280;-87
2022/08/25 05:52:07;;;;;;;1.10;0.83;;;;;;;-145.06;100.00;60892.56;4832953;28;20108;-88
2022/08/25 05:54:45;;;;;;;1.17;0.90;;;;;;;-145.06;100.00;60892.56;4829830;28;20385;-87
2022/08/25 05:57:24;;;;;;;1.70;0.97;;;;;;;-145.06;100.00;60892.56;4864346;28;20273;-89
2022/08/25 06:00:05;;;;;;;1.45;1.10;;;;;;;-145.06;100.00;60892.56;4835839;28;20265;-88
2022/08/25 06:02:47;;;;;;;1.50;1.00;;;;;;;-145.06;100.00;60892.56;4830246;28;20033;-87
2022/08/25 06:05:25;;;;;;;1.48;0.98;;;;;;;-145.06;100.00;60892.56;4844578;28;20031;-87
2022/08/25 06:08:05;;;;;;;1.90;1.08;;;;;;;-145.06;100.00;60892.56;4838189;28;20049;-87
2022/08/25 06:10:44;;;;;;;1.00;0.80;;;;;;;-145.06;100.00;60892.56;4816652;28;20026;-88
2022/08/25 06:13:23;;;;;;;1.35;0.90;;;;;;;-145.06;100.00;60892.56;4845691;28;20113;-88
2022/08/25 06:16:02;;;;;;;1.53;0.83;;;;;;;-145.06;100.00;60892.56;4836139;28;20125;-89
2022/08/25 06:18:40;;;;;;;2.03;1.10;;;;;;;-145.06;100.00;60892.56;4843822;28;20555;-88
2022/08/25 06:21:19;;;;;;;3.25;0.70;;;;;;;-145.06;100.00;60892.56;4843199;28;20049;-88
2022/08/25 06:23:59;;;;;;;1.63;0.93;;;;;;;-145.06;100.00;60892.56;4839408;28;20030;-88
2022/08/25 06:26:38;;;;;;;1.00;0.70;;;;;;;-145.06;100.00;60892.56;4837918;28;20417;-88
2022/08/25 06:29:18;;;;;;;1.23;0.70;;;;;;;-145.06;100.00;60892.56;4836634;28;20038;-87
2022/08/25 06:31:57;;;;;;;1.33;0.73;;;;;;;-145.06;100.00;60892.56;4829960;28;20278;-87
2022/08/25 06:34:36;;;;;;;2.87;0.63;;;;;;;-145.06;100.00;60892.56;4841479;28;20061;-88
2022/08/25 06:37:15;;;;;;;0.50;0.50;;;;;;;-145.06;100.00;60892.56;4836478;28;20264;-88
2022/08/25 06:39:54;;;;;;;1.90;1.08;;;;;;;-145.06;100.00;60892.56;4833924;28;20393;-88
2022/08/25 06:42:33;;;;;;;0.68;0.40;;;;;;;-145.06;100.00;60892.56;4830395;28;20057;-88
2022/08/25 06:45:12;;;;;;;1.17;0.60;;;;;;;-145.06;100.00;60892.56;4841909;28;20629;-88
2022/08/25 06:47:51;;;;;;;1.00;0.50;;;;;;;-145.06;100.00;60892.56;4844981;28;20049;-88
2022/08/25 06:50:30;;;;;;;1.08;0.57;;;;;;;-145.06;100.00;60892.56;4841050;28;20315;-88
2022/08/25 06:53:10;;;;;;;0.65;0.40;;;;;;;-145.06;100.00;60892.56;4832321;28;20033;-87
2022/08/25 06:55:56;;;;;;;0.40;0.30;;;;;;;-145.06;100.00;60892.56;4834374;28;20057;-88
2022/08/25 06:58:36;;;;;;;0.50;0.35;;;;;;;-145.06;100.00;60892.56;4845246;28;20650;-87
2022/08/25 07:01:18;;;;;;;0.80;0.60;;;;;;;-145.06;100.00;60892.56;4834383;28;20022;-87
2022/08/25 07:04:01;;;;;;;0.80;0.45;;;;;;;-145.06;100.00;60892.56;4835533;28;20388;-88
2022/08/25 07:06:40;;;;;;;0.82;0.50;;;;;;;-145.06;100.00;60892.56;4843198;28;20062;-87
2022/08/25 07:09:19;;;;;;;0.85;0.50;;;;;;;-145.06;100.00;60892.56;4833954;28;20381;-88
2022/08/25 07:11:58;;;;;;;0.50;0.40;;;;;;;-145.06;100.00;60892.56;4835230;28;20484;-87
2022/08/25 07:14:38;;;;;;;0.63;0.50;;;;;;;-145.06;100.00;60892.56;4828467;28;20053;-88
2022/08/25 07:17:17;;;;;;;0.45;0.40;;;;;;;-145.06;100.00;60892.56;4830647;28;20042;-88
2022/08/25 07:19:56;;;;;;;0.80;0.60;;;;;;;-145.06;100.00;60892.56;4843425;28;20912;-88
2022/08/25 07:22:35;;;;;;;1.08;0.55;;;;;;;-145.06;100.00;60892.56;4858341;28;20069;-87
2022/08/25 07:25:14;;;;;;;1.17;0.60;;;;;;;-145.06;100.00;60892.56;4835659;28;20033;-89
2022/08/25 07:27:53;;;;;;;1.10;0.30;;;;;;;-145.06;100.00;60892.56;4834725;28;20030;-88
2022/08/25 07:30:32;;;;;;;0.93;0.43;;;;;;;-145.06;100.00;60892.56;4817271;28;20042;-88
2022/08/25 07:33:11;;;;;;;0.95;0.47;;;;;;;-145.06;100.00;60892.56;4819881;28;20034;-89
2022/08/25 07:35:50;;;;;;;1.33;0.43;;;;;;;-145.06;100.00;60892.56;4827947;28;20045;-88
2022/08/25 07:38:29;;;;;;;0.50;0.50;;;;;;;-145.06;100.00;60892.56;4816132;28;20038;-88
2022/08/25 07:41:08;;;;;;;1.20;0.50;;;;;;;-145.06;100.00;60892.56;4833437;28;20030;-88
2022/08/25 07:43:47;;;;;;;0.50;0.50;;;;;;;-145.06;100.00;60892.56;4832665;28;20034;-88
2022/08/25 07:46:26;;;;;;;0.40;0.40;;;;;;;-145.06;100.00;60892.56;4853906;28;20069;-87
2022/08/25 07:49:06;;;;;;;0.60;0.50;;;;;;;-145.06;100.00;60892.56;4819349;28;20065;-88
2022/08/25 07:51:45;;;;;;;;;;;;;;;-145.06;100.00;60892.56;4833268;28;20034;-88
2022/08/25 07:54:26;;;;;;;2.45;0.40;;;;;;;-145.06;100.00;60892.56;4862467;28;20319;-87
2022/08/25 07:57:07;;;;;;;0.45;0.45;;;;;;;-145.06;100.00;60892.56;4834650;28;20034;-88
2022/08/25 07:59:46;;;;;;;1.17;0.40;;;;;;;-145.06;100.00;60892.56;4834333;28;20113;-88
2022/08/25 08:02:26;;;;;;;2.42;0.40;;;;;;;-145.06;100.00;60892.56;4834458;28;20034;-88
2022/08/25 08:05:05;;;;;;;0.60;0.47;;;;;;;-145.06;100.00;60892.56;4834536;28;20069;-87
2022/08/25 08:07:44;;;;;;;0.93;0.57;;;;;;;-145.06;100.00;60892.56;4834087;28;20054;-88
2022/08/25 08:10:24;;;;;;;0.60;0.40;;;;;;;-145.06;100.00;60892.56;4835458;28;20057;-87
2022/08/25 08:13:03;;;;;;;0.65;0.60;;;;;;;-145.06;100.00;60892.56;4848110;28;20029;-88
2022/08/25 08:15:42;;;;;;;0.57;0.50;;;;;;;-145.06;100.00;60892.56;4827961;28;20109;-88
2022/08/25 08:18:21;;;;;;;;;;;;;;;-145.06;100.00;60892.56;4834467;28;20045;-89
2022/08/25 08:21:01;;;;;;;0.70;0.50;;;;;;;-145.06;100.00;60892.56;4838792;28;20515;-88
2022/08/25 08:23:39;;;;;;;0.60;0.40;;;;;;;-145.06;100.00;60892.56;4828451;28;20042;-88
2022/08/25 08:26:19;;;;;;;0.88;0.60;;;;;;;-145.06;100.00;60892.56;4835156;28;20037;-88
2022/08/25 08:28:58;;;;;;;;;;;;;;;-145.06;100.00;60892.56;4835384;28;20365;-88
2022/08/25 08:31:37;;;;;;;1.27;0.52;;;;;;;-145.06;100.00;60892.56;4835957;28;19921;-88
2022/08/25 08:34:16;;;;;;;0.40;0.40;;;;;;;-145.06;100.00;60892.56;4840663;28;20581;-88
2022/08/25 08:36:55;;;;;;;0.40;0.32;;;;;;;-145.06;100.00;60892.56;4834622;28;20038;-88
2022/08/25 08:39:36;;;;;;;0.43;0.40;;;;;;;-145.06;100.00;60892.56;4833203;28;20114;-87
2022/08/25 08:42:36;;;;;;;0.68;0.38;;;;;;;-145.06;100.00;60892.56;4843760;28;20591;-87
2022/08/25 08:45:25;;;;;;;0.70;0.30;;;;;;;-145.06;100.00;60892.56;4836242;28;20029;-88
2022/08/25 08:48:35;;;;;;;0.93;0.60;;;;;;;-145.06;100.00;60892.56;4840221;28;20507;-88
2022/08/25 08:51:24;;;;;;;0.50;0.40;;;;;;;-145.06;100.00;60892.56;4830728;28;20030;-88
2022/08/25 08:54:08;;;;;;;0.65;0.45;;;;;;;-145.06;100.00;60892.56;4833764;28;20026;-89
2022/08/25 08:56:54;;;;;;;0.68;0.50;;;;;;;-145.06;100.00;60892.56;4828783;28;20026;-89
2022/08/25 08:59:42;;;;;;;1.08;0.60;;;;;;;-145.06;100.00;60892.56;4837764;28;20029;-89
2022/08/25 09:02:42;;;;;;;0.50;0.50;;;;;;;-145.06;100.00;60892.56;4836859;28;20030;-88
2022/08/25 09:05:26;;;;;;;0.75;0.50;;;;;;;-145.06;100.00;60892.56;4836991;28;20538;-89
2022/08/25 09:08:10;;;;;;;0.95;0.32;;;;;;;-145.06;100.00;60892.56;4836820;28;20033;-89
2022/08/25 09:10:53;;;;;;;0.45;0.30;;;;;;;-145.06;100.00;60892.56;4838222;28;20511;-87
2022/08/25 09:13:41;;;;;;;0.38;0.38;;;;;;;-145.06;100.00;60892.56;4863158;28;20467;-88
2022/08/25 09:16:54;;;;;;;0.30;0.30;;;;;;;-145.06;100.00;60892.56;4837586;28;20029;-89
2022/08/25 09:20:00;;;;;;;0.47;0.45;;;;;;;-145.06;100.00;60892.56;4836531;28;20376;-88
2022/08/25 09:23:02;;;;;;;1.27;0.30;;;;;;;-145.06;100.00;60892.56;4840710;28;20030;-88
2022/08/25 09:26:02;;;;;;;0.40;0.30;;;;;;;-145.06;100.00;60892.56;4834348;28;20034;-88
2022/08/25 09:28:49;;;;;;;0.40;0.40;;;;;;;-145.06;100.00;60892.56;4818629;28;20042;-88
2022/08/25 09:31:40;;;;;;;0.60;0.50;;;;;;;-145.06;100.00;60892.56;4835703;28;20022;-89
2022/08/25 09:34:23;;;;;;;0.50;0.40;;;;;;;-145.06;100.00;60892.56;4836094;28;20025;-89
2022/08/25 09:37:02;;;;;;;0.57;0.30;;;;;;;-145.06;100.00;60892.56;4832570;28;20042;-89
2022/08/25 09:39:41;;;;;;;0.75;0.35;;;;;;;-145.06;100.00;60892.56;4836069;28;20432;-89
2022/08/25 09:42:19;;;;;;;0.40;0.20;;;;;;;-145.06;100.00;60892.56;4844482;28;20030;-88
2022/08/25 09:44:58;;;;;;;0.38;0.30;;;;;;;-145.06;100.00;60892.56;4835497;28;20026;-89
2022/08/25 09:47:43;;;;;;;0.32;0.30;;;;;;;-145.06;100.00;60892.56;4828817;28;20065;-88
2022/08/25 09:50:22;;;;;;;0.45;0.30;;;;;;;-145.06;100.00;60892.56;4843341;28;20546;-88
2022/08/25 09:53:14;;;;;;;0.63;0.35;;;;;;;-145.06;100.00;60892.56;4837824;28;20484;-89
2022/08/25 09:56:03;;;;;;;0.47;0.40;;;;;;;-145.06;100.00;60892.56;4835444;28;20034;-89
2022/08/25 09:58:42;;;;;;;0.50;0.38;;;;;;;-145.06;100.00;60892.56;4837117;28;20038;-89
2022/08/25 10:01:22;;;;;;;0.47;0.40;;;;;;;-145.06;100.00;60892.56;4839008;28;20109;-89
2022/08/25 10:04:04;;;;;;;1.63;0.30;;;;;;;-145.06;100.00;60892.56;4843462;28;20532;-88
2022/08/25 10:06:46;;;;;;;0.40;0.30;;;;;;;-145.06;100.00;60892.56;4836095;28;20034;-89
2022/08/25 10:09:37;;;;;;;0.43;0.32;;;;;;;-145.06;100.00;60892.56;4835604;28;20030;-90
2022/08/25 10:12:38;;;;;;;0.20;0.20;;;;;;;-145.06;100.00;60892.56;4842229;28;20065;-90
2022/08/25 10:15:35;;;;;;;0.73;0.30;;;;;;;-145.06;100.00;60892.56;4834407;28;20113;-89
2022/08/25 10:18:24;;;;;;;0.40;0.30;;;;;;;-145.06;100.00;60892.56;4843005;28;20033;-89
2022/08/25 10:21:16;;;;;;;0.63;0.40;;;;;;;-145.06;100.00;60892.56;4839764;28;20027;-88
2022/08/25 10:23:55;;;;;;;0.30;0.20;;;;;;;-145.06;100.00;60892.56;4836291;28;20531;-89
2022/08/25 10:26:50;;;;;;;0.28;0.28;;;;;;;-145.06;100.00;60892.56;4828208;28;20065;-87
2022/08/25 10:29:59;;;;;;;0.30;0.30;;;;;;;-145.06;100.00;60892.56;4835495;28;20045;-87
2022/08/25 10:32:53;;;;;;;0.20;0.20;;;;;;;-145.06;100.00;60892.56;4843525;28;20033;-87
2022/08/25 10:35:54;;;;;;;1.38;0.32;;;;;;;-145.06;100.00;60892.56;4834802;28;20030;-86
2022/08/25 10:38:42;;;;;;;0.20;0.20;;;;;;;-145.06;100.00;60892.56;4834870;28;20034;-87
2022/08/25 10:42:01;;;;;;;0.30;0.20;;;;;;;-145.06;100.00;60892.56;4839248;28;20026;-88
2022/08/25 10:48:16;;;;;;;0.17;0.17;;;;;;;-145.06;100.00;60892.56;4823491;28;19913;-87
2022/08/25 10:51:05;;;;;;;0.10;0.10;;;;;;;-145.06;100.00;60892.56;4828282;28;20026;-87
2022/08/25 10:54:22;;;;;;;0.55;0.20;;;;;;;-145.06;100.00;60892.56;4835869;28;20503;-88
2022/08/25 10:57:04;;;;;;;0.63;0.30;;;;;;;-145.06;100.00;60892.56;4827000;28;20026;-88
2022/08/25 11:00:08;;;;;;;0.20;0.20;;;;;;;-145.06;100.00;60892.56;4829251;28;20373;-87
2022/08/25 11:02:53;;;;;;;0.30;0.20;;;;;;;-145.06;100.00;60892.56;4834321;28;20030;-87
2022/08/25 11:05:47;;;;;;;0.20;0.20;;;;;;;-145.06;100.00;60892.56;4834592;28;20034;-88
2022/08/25 11:08:41;;;;;;;0.20;0.20;;;;;;;-145.06;100.00;60892.56;4834078;28;20488;-88
2022/08/25 11:11:31;;;;;;;0.10;0.10;;;;;;;-145.06;100.00;60892.56;4832447;28;20030;-88
2022/08/25 11:14:19;;;;;;;0.20;0.20;;;;;;;-145.06;100.00;60892.56;4831656;28;20479;-87
2022/08/25 11:17:04;;;;;;;0.28;0.20;;;;;;;-145.06;100.00;60892.56;4833999;28;20029;-87
2022/08/25 11:19:47;;;;;;;0.20;0.20;;;;;;;-145.06;100.00;60892.56;4831719;28;20595;-87
2022/08/25 11:22:52;;;;;;;0.20;0.15;;;;;;;-145.06;100.00;60892.56;4834022;28;20034;-87
2022/08/25 11:25:41;;;;;;;0.20;0.20;;;;;;;-145.06;100.00;60892.56;4836232;28;20029;-87
2022/08/25 11:28:41;;;;;;;0.20;0.20;;;;;;;-145.06;100.00;60892.56;4830628;28;20065;-87
2022/08/25 11:31:22;;;;;;;0.20;0.20;;;;;;;-145.06;100.00;60892.56;4832332;28;20038;-87
2022/08/25 11:34:00;;;;;;;0.20;0.20;;;;;;;-145.06;100.00;60892.56;4835412;28;20026;-88
2022/08/25 11:36:48;;;;;;;0.10;0.10;;;;;;;-145.06;100.00;60892.56;4862572;28;20117;-87
2022/08/25 11:40:06;;;;;;;0.22;0.10;;;;;;;-145.06;100.00;60892.56;4834283;28;20057;-87
2022/08/25 11:43:28;;;;;;;0.45;0.30;;;;;;;-145.06;100.00;60892.56;4845932;28;20041;-87
2022/08/25 11:46:11;;;;;;;0.20;0.20;;;;;;;-145.06;100.00;60892.56;4836088;28;20025;-87
2022/08/25 11:49:27;;;;;;;0.25;0.10;;;;;;;-145.06;100.00;60892.56;4865835;28;20029;-88
2022/08/25 11:52:32;;;;;;;0.50;0.28;;;;;;;-145.06;100.00;60892.56;4855074;28;20030;-87
2022/08/25 11:55:14;;;;;;;0.30;0.30;;;;;;;-145.06;100.00;60892.56;4830829;28;20038;-87
2022/08/25 11:58:15;;;;;;;0.77;0.40;;;;;;;-145.06;100.00;60892.56;4832810;28;20438;-87
2022/08/25 12:00:57;;;;;;;0.47;0.25;;;;;;;-145.06;100.00;60892.56;4826246;28;20436;-87
2022/08/25 12:03:36;;;;;;;0.25;0.20;;;;;;;-145.06;100.00;60892.56;4835359;28;20033;-87
2022/08/25 12:06:18;;;;;;;0.40;0.30;;;;;;;-145.06;100.00;60892.56;4832620;28;20495;-86
2022/08/25 12:09:00;;;;;;;0.20;0.20;;;;;;;-145.06;100.00;60892.56;4837152;28;20478;-87
2022/08/25 12:11:44;;;;;;;0.30;0.30;;;;;;;-145.06;100.00;60892.56;4831564;28;20038;-87
2022/08/25 12:14:23;;;;;;;0.38;0.30;;;;;;;-145.06;100.00;60892.56;4832645;28;20029;-87
2022/08/25 12:17:17;;;;;;;;;;;;;;;-145.06;100.00;60892.56;4833329;28;20034;-87
2022/08/25 12:19:58;;;;;;;1.30;0.20;;;;;;;-145.06;100.00;60892.56;4864360;28;19960;-88
2022/08/25 12:22:39;;;;;;;0.40;0.30;;;;;;;-145.06;100.00;60892.56;4830534;28;20038;-88
2022/08/25 12:25:37;;;;;;;0.73;0.55;;;;;;;-145.06;100.00;60892.56;4837839;28;20022;-87
2022/08/25 12:28:31;;;;;;;0.40;0.30;;;;;;;-145.06;100.00;60892.56;4833508;28;20037;-87